sensor_id;sensor_type;location;lat;lon;timestamp;P1;durP1;ratioP1;P2;durP2;ratioP2
27543;SDS011;17996;51.056;3.656;2022-07-21T00:01:50;13.38;;;5.53;;
27543;SDS011;17996;51.056;3.656;2022-07-21T00:04:17;6.38;;;4.53;;
27543;SDS011;17996;51.056;3.656;2022-07-21T00:06:43;8.23;;;5.10;;
27543;SDS011;17996;51.056;3.656;2022-07-21T00:09:10;13.60;;;5.47;;
27543;SDS011;17996;51.056;3.656;2022-07-21T00:11:37;9.35;;;5.65;;
27543;SDS011;17996;51.056;3.656;2022-07-21T00:14:03;16.80;;;6.32;;
27543;SDS011;17996;51.056;3.656;2022-07-21T00:16:30;10.00;;;5.80;;
27543;SDS011;17996;51.056;3.656;2022-07-21T00:18:56;14.48;;;6.43;;
27543;SDS011;17996;51.056;3.656;2022-07-21T00:21:21;13.75;;;7.68;;
27543;SDS011;17996;51.056;3.656;2022-07-21T00:23:47;12.77;;;6.25;;
27543;SDS011;17996;51.056;3.656;2022-07-21T00:26:13;10.85;;;6.15;;
27543;SDS011;17996;51.056;3.656;2022-07-21T00:28:40;13.20;;;6.78;;
27543;SDS011;17996;51.056;3.656;2022-07-21T00:31:06;17.00;;;7.03;;
27543;SDS011;17996;51.056;3.656;2022-07-21T00:33:31;15.25;;;7.45;;
27543;SDS011;17996;51.056;3.656;2022-07-21T00:35:57;16.35;;;8.00;;
27543;SDS011;17996;51.056;3.656;2022-07-21T00:38:23;15.63;;;7.25;;
27543;SDS011;17996;51.056;3.656;2022-07-21T00:40:48;17.25;;;7.63;;
27543;SDS011;17996;51.056;3.656;2022-07-21T00:43:14;14.18;;;6.20;;
27543;SDS011;17996;51.056;3.656;2022-07-21T00:45:39;15.07;;;6.47;;
27543;SDS011;17996;51.056;3.656;2022-07-21T00:48:05;17.40;;;7.60;;
27543;SDS011;17996;51.056;3.656;2022-07-21T00:50:31;14.10;;;6.47;;
27543;SDS011;17996;51.056;3.656;2022-07-21T00:52:58;17.75;;;6.35;;
27543;SDS011;17996;51.056;3.656;2022-07-21T00:55:24;16.73;;;7.22;;
27543;SDS011;17996;51.056;3.656;2022-07-21T00:57:50;12.23;;;6.32;;
27543;SDS011;17996;51.056;3.656;2022-07-21T01:00:21;14.70;;;6.60;;
27543;SDS011;17996;51.056;3.656;2022-07-21T01:02:49;12.27;;;6.50;;
27543;SDS011;17996;51.056;3.656;2022-07-21T01:05:15;12.57;;;6.13;;
27543;SDS011;17996;51.056;3.656;2022-07-21T01:07:44;12.20;;;6.50;;
27543;SDS011;17996;51.056;3.656;2022-07-21T01:10:11;13.07;;;6.30;;
27543;SDS011;17996;51.056;3.656;2022-07-21T01:12:38;13.80;;;6.63;;
27543;SDS011;17996;51.056;3.656;2022-07-21T01:15:05;17.08;;;6.65;;
27543;SDS011;17996;51.056;3.656;2022-07-21T01:17:32;14.50;;;6.45;;
27543;SDS011;17996;51.056;3.656;2022-07-21T01:19:59;17.42;;;6.20;;
27543;SDS011;17996;51.056;3.656;2022-07-21T01:22:28;18.85;;;7.05;;
27543;SDS011;17996;51.056;3.656;2022-07-21T01:24:55;12.25;;;6.10;;
27543;SDS011;17996;51.056;3.656;2022-07-21T01:27:23;13.20;;;6.03;;
27543;SDS011;17996;51.056;3.656;2022-07-21T01:29:52;13.50;;;5.95;;
27543;SDS011;17996;51.056;3.656;2022-07-21T01:32:18;13.35;;;6.03;;
27543;SDS011;17996;51.056;3.656;2022-07-21T01:34:43;16.60;;;6.28;;
27543;SDS011;17996;51.056;3.656;2022-07-21T01:37:09;14.05;;;5.72;;
27543;SDS011;17996;51.056;3.656;2022-07-21T01:39:35;11.73;;;7.07;;
27543;SDS011;17996;51.056;3.656;2022-07-21T01:42:19;12.60;;;6.47;;
27543;SDS011;17996;51.056;3.656;2022-07-21T01:44:45;12.23;;;5.72;;
27543;SDS011;17996;51.056;3.656;2022-07-21T01:47:10;11.57;;;5.95;;
27543;SDS011;17996;51.056;3.656;2022-07-21T01:49:36;11.80;;;5.45;;
27543;SDS011;17996;51.056;3.656;2022-07-21T01:52:02;15.20;;;6.30;;
27543;SDS011;17996;51.056;3.656;2022-07-21T01:54:27;17.55;;;6.32;;
27543;SDS011;17996;51.056;3.656;2022-07-21T01:56:53;12.48;;;6.00;;
27543;SDS011;17996;51.056;3.656;2022-07-21T01:59:19;13.80;;;6.32;;
27543;SDS011;17996;51.056;3.656;2022-07-21T02:01:45;10.90;;;6.03;;
27543;SDS011;17996;51.056;3.656;2022-07-21T02:04:11;18.23;;;6.90;;
27543;SDS011;17996;51.056;3.656;2022-07-21T02:06:37;11.68;;;5.95;;
27543;SDS011;17996;51.056;3.656;2022-07-21T02:09:03;12.35;;;7.28;;
27543;SDS011;17996;51.056;3.656;2022-07-21T02:11:29;15.45;;;6.40;;
27543;SDS011;17996;51.056;3.656;2022-07-21T02:13:55;14.07;;;6.60;;
27543;SDS011;17996;51.056;3.656;2022-07-21T02:16:20;13.73;;;7.13;;
27543;SDS011;17996;51.056;3.656;2022-07-21T02:18:46;16.20;;;7.72;;
27543;SDS011;17996;51.056;3.656;2022-07-21T02:21:12;19.55;;;8.02;;
27543;SDS011;17996;51.056;3.656;2022-07-21T02:23:38;17.35;;;7.53;;
27543;SDS011;17996;51.056;3.656;2022-07-21T02:26:04;14.52;;;7.40;;
27543;SDS011;17996;51.056;3.656;2022-07-21T02:28:29;15.93;;;8.27;;
27543;SDS011;17996;51.056;3.656;2022-07-21T02:30:55;19.63;;;8.48;;
27543;SDS011;17996;51.056;3.656;2022-07-21T02:33:21;16.65;;;8.65;;
27543;SDS011;17996;51.056;3.656;2022-07-21T02:35:47;17.00;;;8.57;;
27543;SDS011;17996;51.056;3.656;2022-07-21T02:38:13;15.75;;;8.80;;
27543;SDS011;17996;51.056;3.656;2022-07-21T02:40:39;14.35;;;8.38;;
27543;SDS011;17996;51.056;3.656;2022-07-21T02:43:05;21.30;;;9.10;;
27543;SDS011;17996;51.056;3.656;2022-07-21T02:45:32;18.70;;;10.25;;
27543;SDS011;17996;51.056;3.656;2022-07-21T02:48:00;17.55;;;10.38;;
27543;SDS011;17996;51.056;3.656;2022-07-21T02:50:28;20.40;;;10.90;;
27543;SDS011;17996;51.056;3.656;2022-07-21T02:55:23;14.77;;;10.77;;
27543;SDS011;17996;51.056;3.656;2022-07-21T02:57:49;20.00;;;11.30;;
27543;SDS011;17996;51.056;3.656;2022-07-21T03:00:27;22.65;;;11.73;;
27543;SDS011;17996;51.056;3.656;2022-07-21T03:02:52;24.30;;;12.82;;
27543;SDS011;17996;51.056;3.656;2022-07-21T03:05:18;20.25;;;12.32;;
27543;SDS011;17996;51.056;3.656;2022-07-21T03:07:44;35.40;;;16.33;;
27543;SDS011;17996;51.056;3.656;2022-07-21T03:10:09;26.27;;;16.08;;
27543;SDS011;17996;51.056;3.656;2022-07-21T03:12:35;29.05;;;15.00;;
27543;SDS011;17996;51.056;3.656;2022-07-21T03:15:01;25.30;;;14.85;;
27543;SDS011;17996;51.056;3.656;2022-07-21T03:17:27;24.33;;;16.77;;
27543;SDS011;17996;51.056;3.656;2022-07-21T03:19:52;28.40;;;17.33;;
27543;SDS011;17996;51.056;3.656;2022-07-21T03:22:18;33.58;;;17.95;;
27543;SDS011;17996;51.056;3.656;2022-07-21T03:24:43;30.15;;;19.38;;
27543;SDS011;17996;51.056;3.656;2022-07-21T03:27:09;32.00;;;20.48;;
27543;SDS011;17996;51.056;3.656;2022-07-21T03:29:35;28.00;;;18.55;;
27543;SDS011;17996;51.056;3.656;2022-07-21T03:32:00;34.75;;;20.98;;
27543;SDS011;17996;51.056;3.656;2022-07-21T03:34:26;36.85;;;19.08;;
27543;SDS011;17996;51.056;3.656;2022-07-21T03:36:52;34.85;;;18.98;;
27543;SDS011;17996;51.056;3.656;2022-07-21T03:39:17;30.08;;;19.70;;
27543;SDS011;17996;51.056;3.656;2022-07-21T03:41:43;26.20;;;20.17;;
27543;SDS011;17996;51.056;3.656;2022-07-21T03:44:08;31.85;;;20.48;;
27543;SDS011;17996;51.056;3.656;2022-07-21T03:46:34;32.08;;;21.52;;
27543;SDS011;17996;51.056;3.656;2022-07-21T03:49:00;29.35;;;19.15;;
27543;SDS011;17996;51.056;3.656;2022-07-21T03:51:25;35.15;;;22.00;;
27543;SDS011;17996;51.056;3.656;2022-07-21T03:53:51;28.33;;;22.73;;
27543;SDS011;17996;51.056;3.656;2022-07-21T03:56:17;32.90;;;23.15;;
27543;SDS011;17996;51.056;3.656;2022-07-21T03:58:42;39.00;;;24.73;;
27543;SDS011;17996;51.056;3.656;2022-07-21T04:01:08;30.00;;;24.77;;
27543;SDS011;17996;51.056;3.656;2022-07-21T04:03:34;33.50;;;23.80;;
27543;SDS011;17996;51.056;3.656;2022-07-21T04:06:00;35.50;;;24.60;;
27543;SDS011;17996;51.056;3.656;2022-07-21T04:08:26;39.95;;;26.08;;
27543;SDS011;17996;51.056;3.656;2022-07-21T04:10:53;34.30;;;25.00;;
27543;SDS011;17996;51.056;3.656;2022-07-21T04:13:19;33.13;;;26.60;;
27543;SDS011;17996;51.056;3.656;2022-07-21T04:15:44;31.85;;;26.33;;
27543;SDS011;17996;51.056;3.656;2022-07-21T04:18:10;32.05;;;25.05;;
27543;SDS011;17996;51.056;3.656;2022-07-21T04:20:36;34.55;;;26.48;;
27543;SDS011;17996;51.056;3.656;2022-07-21T04:23:02;37.60;;;28.13;;
27543;SDS011;17996;51.056;3.656;2022-07-21T04:25:28;39.80;;;26.40;;
27543;SDS011;17996;51.056;3.656;2022-07-21T04:27:54;32.03;;;26.98;;
27543;SDS011;17996;51.056;3.656;2022-07-21T04:30:22;33.53;;;26.88;;
27543;SDS011;17996;51.056;3.656;2022-07-21T04:32:48;34.92;;;27.90;;
27543;SDS011;17996;51.056;3.656;2022-07-21T04:35:15;41.15;;;29.45;;
27543;SDS011;17996;51.056;3.656;2022-07-21T04:37:41;32.83;;;25.58;;
27543;SDS011;17996;51.056;3.656;2022-07-21T04:40:08;36.28;;;27.92;;
27543;SDS011;17996;51.056;3.656;2022-07-21T04:42:35;36.15;;;26.67;;
27543;SDS011;17996;51.056;3.656;2022-07-21T04:45:02;33.55;;;29.15;;
27543;SDS011;17996;51.056;3.656;2022-07-21T04:47:29;39.50;;;29.77;;
27543;SDS011;17996;51.056;3.656;2022-07-21T04:49:54;44.00;;;30.08;;
27543;SDS011;17996;51.056;3.656;2022-07-21T04:52:20;31.95;;;28.40;;
27543;SDS011;17996;51.056;3.656;2022-07-21T04:54:46;44.72;;;30.83;;
27543;SDS011;17996;51.056;3.656;2022-07-21T04:57:11;36.50;;;29.67;;
27543;SDS011;17996;51.056;3.656;2022-07-21T04:59:37;43.33;;;29.90;;
27543;SDS011;17996;51.056;3.656;2022-07-21T05:02:04;38.20;;;31.13;;
27543;SDS011;17996;51.056;3.656;2022-07-21T05:04:29;41.78;;;31.40;;
27543;SDS011;17996;51.056;3.656;2022-07-21T05:06:55;42.95;;;33.33;;
27543;SDS011;17996;51.056;3.656;2022-07-21T05:09:21;46.15;;;33.95;;
27543;SDS011;17996;51.056;3.656;2022-07-21T05:11:47;45.63;;;33.17;;
27543;SDS011;17996;51.056;3.656;2022-07-21T05:14:12;46.92;;;35.08;;
27543;SDS011;17996;51.056;3.656;2022-07-21T05:16:38;51.53;;;38.78;;
27543;SDS011;17996;51.056;3.656;2022-07-21T05:19:04;50.88;;;37.47;;
27543;SDS011;17996;51.056;3.656;2022-07-21T05:21:29;55.20;;;37.58;;
27543;SDS011;17996;51.056;3.656;2022-07-21T05:23:55;58.50;;;39.58;;
27543;SDS011;17996;51.056;3.656;2022-07-21T05:26:21;54.63;;;38.53;;
27543;SDS011;17996;51.056;3.656;2022-07-21T05:28:47;59.38;;;40.15;;
27543;SDS011;17996;51.056;3.656;2022-07-21T05:31:13;61.42;;;41.45;;
27543;SDS011;17996;51.056;3.656;2022-07-21T05:33:39;69.30;;;42.95;;
27543;SDS011;17996;51.056;3.656;2022-07-21T05:36:05;66.90;;;41.38;;
27543;SDS011;17996;51.056;3.656;2022-07-21T05:38:31;62.25;;;41.92;;
27543;SDS011;17996;51.056;3.656;2022-07-21T05:40:57;71.03;;;43.08;;
27543;SDS011;17996;51.056;3.656;2022-07-21T05:43:28;64.43;;;38.33;;
27543;SDS011;17996;51.056;3.656;2022-07-21T05:45:55;45.50;;;29.23;;
27543;SDS011;17996;51.056;3.656;2022-07-21T05:48:22;73.13;;;42.22;;
27543;SDS011;17996;51.056;3.656;2022-07-21T05:50:47;66.47;;;42.92;;
27543;SDS011;17996;51.056;3.656;2022-07-21T05:53:13;71.90;;;44.80;;
27543;SDS011;17996;51.056;3.656;2022-07-21T05:55:39;56.17;;;33.65;;
27543;SDS011;17996;51.056;3.656;2022-07-21T05:58:04;75.00;;;43.63;;
27543;SDS011;17996;51.056;3.656;2022-07-21T06:00:30;64.05;;;36.35;;
27543;SDS011;17996;51.056;3.656;2022-07-21T06:02:56;54.72;;;35.97;;
27543;SDS011;17996;51.056;3.656;2022-07-21T06:05:21;62.65;;;40.30;;
27543;SDS011;17996;51.056;3.656;2022-07-21T06:07:48;78.75;;;41.33;;
27543;SDS011;17996;51.056;3.656;2022-07-21T06:10:14;64.72;;;41.13;;
27543;SDS011;17996;51.056;3.656;2022-07-21T06:12:40;67.00;;;40.03;;
27543;SDS011;17996;51.056;3.656;2022-07-21T06:15:06;66.35;;;39.92;;
27543;SDS011;17996;51.056;3.656;2022-07-21T06:17:39;61.58;;;38.38;;
27543;SDS011;17996;51.056;3.656;2022-07-21T06:20:09;60.40;;;38.00;;
27543;SDS011;17996;51.056;3.656;2022-07-21T06:22:36;62.00;;;36.45;;
27543;SDS011;17996;51.056;3.656;2022-07-21T06:25:03;61.53;;;36.25;;
27543;SDS011;17996;51.056;3.656;2022-07-21T06:27:29;62.92;;;34.17;;
27543;SDS011;17996;51.056;3.656;2022-07-21T06:29:56;55.38;;;33.88;;
27543;SDS011;17996;51.056;3.656;2022-07-21T06:32:24;51.00;;;33.58;;
27543;SDS011;17996;51.056;3.656;2022-07-21T06:34:50;54.35;;;31.33;;
27543;SDS011;17996;51.056;3.656;2022-07-21T06:37:16;58.67;;;31.48;;
27543;SDS011;17996;51.056;3.656;2022-07-21T06:39:41;48.17;;;30.27;;
27543;SDS011;17996;51.056;3.656;2022-07-21T06:42:07;49.47;;;29.80;;
27543;SDS011;17996;51.056;3.656;2022-07-21T06:44:34;44.08;;;27.35;;
27543;SDS011;17996;51.056;3.656;2022-07-21T06:47:00;40.53;;;26.33;;
27543;SDS011;17996;51.056;3.656;2022-07-21T06:49:32;48.67;;;26.88;;
27543;SDS011;17996;51.056;3.656;2022-07-21T06:51:58;43.00;;;24.42;;
27543;SDS011;17996;51.056;3.656;2022-07-21T06:54:24;36.25;;;22.15;;
27543;SDS011;17996;51.056;3.656;2022-07-21T06:56:50;43.20;;;21.92;;
27543;SDS011;17996;51.056;3.656;2022-07-21T06:59:16;42.65;;;21.55;;
27543;SDS011;17996;51.056;3.656;2022-07-21T07:01:41;37.20;;;19.65;;
27543;SDS011;17996;51.056;3.656;2022-07-21T07:04:07;31.52;;;18.63;;
27543;SDS011;17996;51.056;3.656;2022-07-21T07:06:33;49.45;;;17.00;;
27543;SDS011;17996;51.056;3.656;2022-07-21T07:08:58;35.28;;;16.52;;
27543;SDS011;17996;51.056;3.656;2022-07-21T07:11:24;34.45;;;16.20;;
27543;SDS011;17996;51.056;3.656;2022-07-21T07:13:50;35.47;;;15.80;;
27543;SDS011;17996;51.056;3.656;2022-07-21T07:16:15;36.65;;;15.23;;
27543;SDS011;17996;51.056;3.656;2022-07-21T07:18:41;30.70;;;16.17;;
27543;SDS011;17996;51.056;3.656;2022-07-21T07:21:07;27.30;;;15.40;;
27543;SDS011;17996;51.056;3.656;2022-07-21T07:23:32;32.55;;;15.60;;
27543;SDS011;17996;51.056;3.656;2022-07-21T07:25:58;31.48;;;14.75;;
27543;SDS011;17996;51.056;3.656;2022-07-21T07:28:24;27.65;;;14.38;;
27543;SDS011;17996;51.056;3.656;2022-07-21T07:30:49;26.65;;;14.07;;
27543;SDS011;17996;51.056;3.656;2022-07-21T07:33:15;37.78;;;16.48;;
27543;SDS011;17996;51.056;3.656;2022-07-21T07:35:41;25.27;;;14.27;;
27543;SDS011;17996;51.056;3.656;2022-07-21T07:38:06;25.80;;;14.07;;
27543;SDS011;17996;51.056;3.656;2022-07-21T07:40:32;25.85;;;13.98;;
27543;SDS011;17996;51.056;3.656;2022-07-21T07:42:58;27.35;;;14.77;;
27543;SDS011;17996;51.056;3.656;2022-07-21T07:45:23;27.30;;;14.40;;
27543;SDS011;17996;51.056;3.656;2022-07-21T07:47:50;31.15;;;15.05;;
27543;SDS011;17996;51.056;3.656;2022-07-21T07:50:16;29.13;;;14.02;;
27543;SDS011;17996;51.056;3.656;2022-07-21T07:52:43;29.13;;;15.02;;
27543;SDS011;17996;51.056;3.656;2022-07-21T07:55:09;27.00;;;13.88;;
27543;SDS011;17996;51.056;3.656;2022-07-21T07:57:36;19.90;;;13.07;;
27543;SDS011;17996;51.056;3.656;2022-07-21T08:00:07;30.42;;;12.32;;
27543;SDS011;17996;51.056;3.656;2022-07-21T08:02:37;21.55;;;11.35;;
27543;SDS011;17996;51.056;3.656;2022-07-21T08:05:03;26.83;;;12.48;;
27543;SDS011;17996;51.056;3.656;2022-07-21T08:07:29;21.17;;;10.30;;
27543;SDS011;17996;51.056;3.656;2022-07-21T08:09:55;21.10;;;10.55;;
27543;SDS011;17996;51.056;3.656;2022-07-21T08:12:22;28.67;;;10.65;;
27543;SDS011;17996;51.056;3.656;2022-07-21T08:14:47;17.45;;;9.30;;
27543;SDS011;17996;51.056;3.656;2022-07-21T08:17:13;20.40;;;9.50;;
27543;SDS011;17996;51.056;3.656;2022-07-21T08:19:41;13.63;;;9.20;;
27543;SDS011;17996;51.056;3.656;2022-07-21T08:22:10;22.60;;;9.07;;
27543;SDS011;17996;51.056;3.656;2022-07-21T08:24:36;18.73;;;8.90;;
27543;SDS011;17996;51.056;3.656;2022-07-21T08:27:02;25.25;;;10.57;;
27543;SDS011;17996;51.056;3.656;2022-07-21T08:29:28;18.73;;;9.88;;
27543;SDS011;17996;51.056;3.656;2022-07-21T08:31:53;19.75;;;9.48;;
27543;SDS011;17996;51.056;3.656;2022-07-21T08:34:19;23.75;;;9.60;;
27543;SDS011;17996;51.056;3.656;2022-07-21T08:36:45;18.23;;;10.55;;
27543;SDS011;17996;51.056;3.656;2022-07-21T08:39:10;28.60;;;10.75;;
27543;SDS011;17996;51.056;3.656;2022-07-21T08:41:36;20.63;;;10.68;;
27543;SDS011;17996;51.056;3.656;2022-07-21T08:44:02;20.52;;;10.50;;
27543;SDS011;17996;51.056;3.656;2022-07-21T08:46:28;24.60;;;11.20;;
27543;SDS011;17996;51.056;3.656;2022-07-21T08:48:57;25.38;;;10.75;;
27543;SDS011;17996;51.056;3.656;2022-07-21T08:51:31;28.52;;;11.40;;
27543;SDS011;17996;51.056;3.656;2022-07-21T08:54:00;22.08;;;11.35;;
27543;SDS011;17996;51.056;3.656;2022-07-21T08:56:27;27.83;;;11.35;;
27543;SDS011;17996;51.056;3.656;2022-07-21T08:58:53;24.13;;;10.88;;
27543;SDS011;17996;51.056;3.656;2022-07-21T09:01:19;19.15;;;10.13;;
27543;SDS011;17996;51.056;3.656;2022-07-21T09:03:48;20.90;;;10.05;;
27543;SDS011;17996;51.056;3.656;2022-07-21T09:06:17;27.15;;;11.15;;
27543;SDS011;17996;51.056;3.656;2022-07-21T09:13:48;24.85;;;11.18;;
27543;SDS011;17996;51.056;3.656;2022-07-21T09:16:39;24.17;;;10.70;;
27543;SDS011;17996;51.056;3.656;2022-07-21T09:19:07;21.10;;;10.43;;
27543;SDS011;17996;51.056;3.656;2022-07-21T09:21:41;24.80;;;9.70;;
27543;SDS011;17996;51.056;3.656;2022-07-21T09:24:50;17.65;;;9.48;;
27543;SDS011;17996;51.056;3.656;2022-07-21T09:32:22;24.83;;;9.23;;
27543;SDS011;17996;51.056;3.656;2022-07-21T09:34:52;20.42;;;8.35;;
27543;SDS011;17996;51.056;3.656;2022-07-21T09:37:25;21.15;;;8.32;;
27543;SDS011;17996;51.056;3.656;2022-07-21T09:39:52;18.52;;;8.20;;
27543;SDS011;17996;51.056;3.656;2022-07-21T09:42:27;21.55;;;8.68;;
27543;SDS011;17996;51.056;3.656;2022-07-21T09:44:56;24.02;;;8.10;;
27543;SDS011;17996;51.056;3.656;2022-07-21T09:47:24;21.05;;;7.65;;
27543;SDS011;17996;51.056;3.656;2022-07-21T09:49:52;18.63;;;7.20;;
27543;SDS011;17996;51.056;3.656;2022-07-21T09:55:02;28.08;;;7.72;;
27543;SDS011;17996;51.056;3.656;2022-07-21T09:57:33;17.73;;;7.07;;
27543;SDS011;17996;51.056;3.656;2022-07-21T09:59:59;19.98;;;7.25;;
27543;SDS011;17996;51.056;3.656;2022-07-21T10:02:28;21.40;;;6.93;;
27543;SDS011;17996;51.056;3.656;2022-07-21T10:04:56;15.85;;;6.75;;
27543;SDS011;17996;51.056;3.656;2022-07-21T10:07:22;18.17;;;7.13;;
27543;SDS011;17996;51.056;3.656;2022-07-21T10:09:48;18.85;;;6.25;;
27543;SDS011;17996;51.056;3.656;2022-07-21T10:12:15;23.65;;;7.55;;
27543;SDS011;17996;51.056;3.656;2022-07-21T10:14:42;19.58;;;6.63;;
27543;SDS011;17996;51.056;3.656;2022-07-21T10:17:08;16.58;;;6.78;;
27543;SDS011;17996;51.056;3.656;2022-07-21T10:25:39;19.65;;;6.18;;
27543;SDS011;17996;51.056;3.656;2022-07-21T10:33:07;16.70;;;6.70;;
27543;SDS011;17996;51.056;3.656;2022-07-21T10:35:33;19.95;;;6.28;;
27543;SDS011;17996;51.056;3.656;2022-07-21T10:38:01;14.98;;;5.93;;
27543;SDS011;17996;51.056;3.656;2022-07-21T10:45:29;22.58;;;6.25;;
27543;SDS011;17996;51.056;3.656;2022-07-21T10:47:54;17.08;;;7.13;;
27543;SDS011;17996;51.056;3.656;2022-07-21T10:50:29;17.13;;;5.72;;
27543;SDS011;17996;51.056;3.656;2022-07-21T10:52:56;17.20;;;6.07;;
27543;SDS011;17996;51.056;3.656;2022-07-21T10:55:26;21.15;;;5.63;;
27543;SDS011;17996;51.056;3.656;2022-07-21T10:58:10;16.60;;;5.13;;
27543;SDS011;17996;51.056;3.656;2022-07-21T11:01:00;20.15;;;6.10;;
27543;SDS011;17996;51.056;3.656;2022-07-21T11:03:45;11.35;;;4.80;;
27543;SDS011;17996;51.056;3.656;2022-07-21T11:06:31;21.92;;;5.35;;
27543;SDS011;17996;51.056;3.656;2022-07-21T11:11:33;17.90;;;5.95;;
27543;SDS011;17996;51.056;3.656;2022-07-21T11:19:32;18.40;;;5.80;;
27543;SDS011;17996;51.056;3.656;2022-07-21T11:24:59;18.90;;;6.45;;
27543;SDS011;17996;51.056;3.656;2022-07-21T11:27:30;24.88;;;6.47;;
27543;SDS011;17996;51.056;3.656;2022-07-21T11:29:58;16.23;;;5.68;;
27543;SDS011;17996;51.056;3.656;2022-07-21T11:32:25;30.45;;;6.75;;
27543;SDS011;17996;51.056;3.656;2022-07-21T11:34:56;23.80;;;6.15;;
27543;SDS011;17996;51.056;3.656;2022-07-21T11:39:51;21.50;;;6.75;;
27543;SDS011;17996;51.056;3.656;2022-07-21T11:42:17;23.02;;;6.93;;
27543;SDS011;17996;51.056;3.656;2022-07-21T11:44:43;21.23;;;6.72;;
27543;SDS011;17996;51.056;3.656;2022-07-21T11:47:15;21.33;;;6.65;;
27543;SDS011;17996;51.056;3.656;2022-07-21T11:49:41;17.38;;;6.15;;
27543;SDS011;17996;51.056;3.656;2022-07-21T11:57:05;27.45;;;6.07;;
27543;SDS011;17996;51.056;3.656;2022-07-21T11:59:32;23.40;;;6.05;;
27543;SDS011;17996;51.056;3.656;2022-07-21T12:02:01;21.10;;;6.05;;
27543;SDS011;17996;51.056;3.656;2022-07-21T12:04:50;22.42;;;7.20;;
27543;SDS011;17996;51.056;3.656;2022-07-21T12:07:19;35.92;;;6.75;;
27543;SDS011;17996;51.056;3.656;2022-07-21T12:09:52;24.67;;;6.00;;
27543;SDS011;17996;51.056;3.656;2022-07-21T12:18:01;25.02;;;6.95;;
27543;SDS011;17996;51.056;3.656;2022-07-21T12:20:44;23.92;;;6.53;;
27543;SDS011;17996;51.056;3.656;2022-07-21T12:23:26;27.25;;;7.03;;
27543;SDS011;17996;51.056;3.656;2022-07-21T12:25:54;26.17;;;6.93;;
27543;SDS011;17996;51.056;3.656;2022-07-21T12:28:40;29.60;;;7.80;;
27543;SDS011;17996;51.056;3.656;2022-07-21T12:31:11;26.40;;;6.60;;
27543;SDS011;17996;51.056;3.656;2022-07-21T12:33:39;23.60;;;6.53;;
27543;SDS011;17996;51.056;3.656;2022-07-21T12:36:06;31.10;;;7.60;;
27543;SDS011;17996;51.056;3.656;2022-07-21T12:38:40;19.98;;;6.68;;
27543;SDS011;17996;51.056;3.656;2022-07-21T12:41:12;23.33;;;6.95;;
27543;SDS011;17996;51.056;3.656;2022-07-21T12:48:38;21.77;;;6.55;;
27543;SDS011;17996;51.056;3.656;2022-07-21T12:51:15;28.38;;;6.60;;
27543;SDS011;17996;51.056;3.656;2022-07-21T12:53:50;28.35;;;7.80;;
27543;SDS011;17996;51.056;3.656;2022-07-21T12:56:19;23.65;;;6.38;;
27543;SDS011;17996;51.056;3.656;2022-07-21T12:58:47;24.73;;;5.47;;
27543;SDS011;17996;51.056;3.656;2022-07-21T13:01:14;29.55;;;7.05;;
27543;SDS011;17996;51.056;3.656;2022-07-21T13:03:42;18.42;;;6.20;;
27543;SDS011;17996;51.056;3.656;2022-07-21T13:06:08;23.48;;;5.93;;
27543;SDS011;17996;51.056;3.656;2022-07-21T13:08:35;21.63;;;6.07;;
27543;SDS011;17996;51.056;3.656;2022-07-21T13:11:03;21.67;;;6.82;;
27543;SDS011;17996;51.056;3.656;2022-07-21T13:13:31;26.08;;;6.13;;
27543;SDS011;17996;51.056;3.656;2022-07-21T13:15:57;26.33;;;7.43;;
27543;SDS011;17996;51.056;3.656;2022-07-21T13:18:23;19.00;;;5.47;;
27543;SDS011;17996;51.056;3.656;2022-07-21T13:20:49;23.38;;;5.68;;
27543;SDS011;17996;51.056;3.656;2022-07-21T13:23:16;21.15;;;5.82;;
27543;SDS011;17996;51.056;3.656;2022-07-21T13:25:43;20.70;;;6.00;;
27543;SDS011;17996;51.056;3.656;2022-07-21T13:28:09;17.13;;;5.20;;
27543;SDS011;17996;51.056;3.656;2022-07-21T13:30:35;23.92;;;5.60;;
27543;SDS011;17996;51.056;3.656;2022-07-21T13:33:00;21.23;;;5.55;;
27543;SDS011;17996;51.056;3.656;2022-07-21T13:35:26;23.73;;;5.90;;
27543;SDS011;17996;51.056;3.656;2022-07-21T13:37:55;21.35;;;5.63;;
27543;SDS011;17996;51.056;3.656;2022-07-21T13:40:22;22.42;;;5.95;;
27543;SDS011;17996;51.056;3.656;2022-07-21T13:42:49;23.90;;;9.80;;
27543;SDS011;17996;51.056;3.656;2022-07-21T13:45:14;20.42;;;5.32;;
27543;SDS011;17996;51.056;3.656;2022-07-21T13:47:41;15.88;;;5.03;;
27543;SDS011;17996;51.056;3.656;2022-07-21T13:50:07;18.38;;;4.82;;
27543;SDS011;17996;51.056;3.656;2022-07-21T13:52:33;13.95;;;4.18;;
27543;SDS011;17996;51.056;3.656;2022-07-21T13:55:00;22.02;;;5.95;;
27543;SDS011;17996;51.056;3.656;2022-07-21T13:57:26;19.10;;;5.35;;
27543;SDS011;17996;51.056;3.656;2022-07-21T13:59:52;19.00;;;5.32;;
27543;SDS011;17996;51.056;3.656;2022-07-21T14:02:17;21.63;;;4.95;;
27543;SDS011;17996;51.056;3.656;2022-07-21T14:04:44;24.67;;;5.72;;
27543;SDS011;17996;51.056;3.656;2022-07-21T14:07:10;12.10;;;5.30;;
27543;SDS011;17996;51.056;3.656;2022-07-21T14:09:39;29.45;;;6.30;;
27543;SDS011;17996;51.056;3.656;2022-07-21T14:12:05;24.45;;;6.20;;
27543;SDS011;17996;51.056;3.656;2022-07-21T14:14:31;24.10;;;6.47;;
27543;SDS011;17996;51.056;3.656;2022-07-21T14:16:57;24.42;;;6.13;;
27543;SDS011;17996;51.056;3.656;2022-07-21T14:19:23;25.55;;;6.00;;
27543;SDS011;17996;51.056;3.656;2022-07-21T14:21:48;25.20;;;7.03;;
27543;SDS011;17996;51.056;3.656;2022-07-21T14:24:14;22.85;;;5.53;;
27543;SDS011;17996;51.056;3.656;2022-07-21T14:26:59;24.95;;;5.35;;
27543;SDS011;17996;51.056;3.656;2022-07-21T14:29:25;23.67;;;5.75;;
27543;SDS011;17996;51.056;3.656;2022-07-21T14:31:51;32.63;;;7.38;;
27543;SDS011;17996;51.056;3.656;2022-07-21T14:34:16;28.92;;;5.40;;
27543;SDS011;17996;51.056;3.656;2022-07-21T14:36:42;27.10;;;5.00;;
27543;SDS011;17996;51.056;3.656;2022-07-21T14:39:08;27.02;;;6.65;;
27543;SDS011;17996;51.056;3.656;2022-07-21T14:41:34;26.35;;;6.40;;
27543;SDS011;17996;51.056;3.656;2022-07-21T14:44:00;26.15;;;6.82;;
27543;SDS011;17996;51.056;3.656;2022-07-21T14:46:25;27.48;;;6.45;;
27543;SDS011;17996;51.056;3.656;2022-07-21T14:48:51;21.42;;;5.90;;
27543;SDS011;17996;51.056;3.656;2022-07-21T14:51:17;21.48;;;6.38;;
27543;SDS011;17996;51.056;3.656;2022-07-21T14:53:42;27.88;;;7.05;;
27543;SDS011;17996;51.056;3.656;2022-07-21T14:56:08;23.45;;;5.13;;
27543;SDS011;17996;51.056;3.656;2022-07-21T14:58:34;26.13;;;5.40;;
27543;SDS011;17996;51.056;3.656;2022-07-21T15:01:00;20.65;;;5.40;;
27543;SDS011;17996;51.056;3.656;2022-07-21T15:03:26;24.75;;;5.68;;
27543;SDS011;17996;51.056;3.656;2022-07-21T15:05:52;19.83;;;5.35;;
27543;SDS011;17996;51.056;3.656;2022-07-21T15:08:18;17.98;;;4.43;;
27543;SDS011;17996;51.056;3.656;2022-07-21T15:10:44;22.45;;;4.85;;
27543;SDS011;17996;51.056;3.656;2022-07-21T15:13:11;19.60;;;5.18;;
27543;SDS011;17996;51.056;3.656;2022-07-21T15:15:38;19.80;;;4.78;;
27543;SDS011;17996;51.056;3.656;2022-07-21T15:18:05;23.67;;;5.32;;
27543;SDS011;17996;51.056;3.656;2022-07-21T15:20:31;21.90;;;5.70;;
27543;SDS011;17996;51.056;3.656;2022-07-21T15:22:57;24.45;;;6.55;;
27543;SDS011;17996;51.056;3.656;2022-07-21T15:25:23;20.17;;;5.72;;
27543;SDS011;17996;51.056;3.656;2022-07-21T15:27:49;31.25;;;6.93;;
27543;SDS011;17996;51.056;3.656;2022-07-21T15:30:15;18.40;;;5.63;;